Briefing drone pour La rochette

Rechercher une autre localisation

Conditions de vol :


Nous sommes le : Lundi 02 août 2021
Il est 23:26 UTC (01:26 LT)

Lever de soleil : 03:54 UTC (05:54 LT)
Coucher de soleil : 19:28 UTC (21:28 LT)

Météo

L'essentiel des conditions de vol

VIGILANCE MÉTÉO FRANCE - Savoie (73)
Vigilance Jaune : Orages
CARTE TEMSI
CARTES DES FRONTS
METAR de LFLB
LFLB 012300Z AUTO VRB02KT 9999 FEW013 SCT100 13/13 Q1016

Date d'émission: 01/08/2021
Heure d'émission: 23:00 UTC
Vent: Variable 2 KT (4 km/h)
Visibilité horizontale: > 10 km
Plafond :
- Peu de nuages à 1300ft (396m)
- Nuages épars à 10000ft (3048m)
Température: 13 °C
Point de rosée: 13 °C
Humidité: 100%
Pression (QNH): 1016 hPa
TAF de LFLB
LFLB 011900Z 0119/0215 CNL

Conditions prévues :

Heure d'émission : Bulletin éffectué le 01 à 19:00 UTC
Prévision : Valide du 01 a 19:00 UTC au 02 a 15:00 UTC
Nuages : à 0ft (0 m)
WEBCAM POUR LA ROCHETTE

Réglementation

Voler en sécurité

CARTES AERONAUTIQUE 1/500.000
CARTES VAC (LFLB)
SUP AIP




Chargement des AIP...
NOTAM (LA ROCHETTE + Terrain à proximité / FIR )




Chargement des NOTAMS...
CONTACT PREFECTURE 73


Avertissement : Les données mises à disposition sont indicatives. Oxygène Drone ne pourra être tenu responsable de dégâts causés aux biens et aux personnes.